SBMN/MAO METAR and TAF weather

Enter ICAO airport designator
Station Type Date Time Source
SBMN METAR 2020/07/09 08:00 UTC NOAA

SBMN 090800Z 15003KT CAVOK 25/24 Q1011


Station Type Date Time Source
SBMN Decoded METAR 2020/07/09 08:00 UTC NOAA

Manaus Aeroporto , Brazil (SBMN) 03-09S 059-59W 84M
Jul 09, 2020 - 04:00 AM EDT / 2020.07.09 0800 UTC
Wind: from the SSE (150 degrees) at 3 MPH (3 KT):0
Visibility: greater than 7 mile(s):0
Temperature: 77 F (25 C)
Dew Point: 75 F (24 C)
Relative Humidity: 94%
Pressure (altimeter): 29.85 in. Hg (1011 hPa)
ob: SBMN 090800Z 15003KT CAVOK 25/24 Q1011
cycle: 8

Station Type Date Time Source
SBMN TAF 2020/07/09 06:18 UTC NOAA

TAF SBMN 090300Z 0906/0918 23003KT 8000 SCT015 TN24/0908Z TX31/0918Z
BECMG 0914/0916 12005KT 9999 SCT020 FEW025TCU
RMK PAZ

Example: see airport list